Time;durP1;ratioP1;P1;durP2;ratioP2;P2;SDS_P1;SDS_P2;PMS_P1;PMS_P2;Temp;Humidity;BMP_temperature;BMP_pressure;BME280_temperature;BME280_humidity;BME280_pressure;Samples;Min_cycle;Max_cycle;Signal;HPM_P1;HPM_P2
2022/11/16 00:00:25;;;;;;;146.05;87.05;;;;;;;6.68;73.48;94390.38;4149984;28;20053;-74
2022/11/16 00:02:26;;;;;;;143.63;85.45;;;;;;;6.61;72.63;94386.72;4153002;28;20072;-72
2022/11/16 00:04:28;;;;;;;144.73;83.78;;;;;;;6.69;73.24;94385.06;4155380;28;20061;-74
2022/11/16 00:06:30;;;;;;;146.45;85.28;;;;;;;6.79;72.58;94374.56;4146755;28;20492;-75
2022/11/16 00:08:38;;;;;;;139.40;80.78;;;;;;;6.91;72.69;94385.66;4143312;28;20046;-75
2022/11/16 00:10:40;;;;;;;130.15;78.28;;;;;;;6.94;72.08;94383.56;4141076;28;20133;-76
2022/11/16 00:12:42;;;;;;;126.78;77.13;;;;;;;6.93;71.82;94384.53;4144593;28;20136;-73
2022/11/16 00:14:43;;;;;;;131.35;79.53;;;;;;;6.98;71.85;94379.69;4145161;28;20061;-74
2022/11/16 00:16:45;;;;;;;129.27;75.85;;;;;;;7.01;71.88;94375.97;4142511;28;20439;-76
2022/11/16 00:18:47;;;;;;;124.65;75.18;;;;;;;7.06;71.59;94362.53;4143430;28;20108;-71
2022/11/16 00:20:49;;;;;;;128.80;78.30;;;;;;;7.12;71.91;94374.97;4144604;28;20062;-72
2022/11/16 00:22:51;;;;;;;155.93;94.50;;;;;;;7.05;72.00;94371.31;4144389;28;20057;-71
2022/11/16 00:24:53;;;;;;;166.23;95.18;;;;;;;7.07;72.52;94371.97;4143228;28;20081;-71
2022/11/16 00:26:55;;;;;;;161.70;92.68;;;;;;;7.04;71.86;94377.50;4144718;28;20092;-71
2022/11/16 00:28:56;;;;;;;143.38;89.57;;;;;;;7.05;72.15;94366.91;4142263;28;20139;-71
2022/11/16 00:30:59;;;;;;;136.20;77.80;;;;;;;7.07;72.08;94362.38;4142373;28;20057;-71
2022/11/16 00:33:05;;;;;;;141.93;87.72;;;;;;;7.11;71.96;94363.72;4142158;28;20530;-71
2022/11/16 00:35:07;;;;;;;163.70;93.53;;;;;;;7.17;72.23;94368.34;4144353;28;20062;-73
2022/11/16 00:37:08;;;;;;;158.63;91.70;;;;;;;7.24;71.94;94371.19;4144612;28;20133;-75
2022/11/16 00:39:12;;;;;;;155.63;92.50;;;;;;;7.27;71.33;94359.66;4142722;28;20119;-72
2022/11/16 00:41:14;;;;;;;161.63;100.13;;;;;;;7.23;71.38;94359.16;4143794;28;20054;-72
2022/11/16 00:43:15;;;;;;;161.32;93.97;;;;;;;7.26;71.79;94364.03;4144377;28;20050;-74
2022/11/16 00:45:17;;;;;;;155.90;94.72;;;;;;;7.32;71.12;94358.25;4142429;28;20204;-72
2022/11/16 00:47:19;;;;;;;157.40;92.80;;;;;;;7.40;70.77;94365.34;4143282;28;20145;-73
2022/11/16 00:49:20;;;;;;;160.43;95.22;;;;;;;7.47;70.26;94361.19;4144166;28;20071;-74
2022/11/16 00:51:22;;;;;;;159.90;93.68;;;;;;;7.47;70.20;94357.75;4142819;28;20057;-75
2022/11/16 00:53:24;;;;;;;154.45;93.93;;;;;;;7.47;70.27;94355.16;4144072;28;20053;-74
2022/11/16 00:55:25;;;;;;;154.15;92.95;;;;;;;7.43;70.56;94353.81;4142794;28;20045;-76
2022/11/16 00:57:27;;;;;;;155.80;94.68;;;;;;;7.44;70.20;94352.81;4144514;28;20069;-75
2022/11/16 00:59:29;;;;;;;159.07;96.88;;;;;;;7.45;70.00;94346.66;4144358;28;20058;-75
2022/11/16 01:01:30;;;;;;;163.90;99.45;;;;;;;7.43;70.12;94340.78;4143227;28;20056;-74
2022/11/16 01:03:36;;;;;;;166.30;99.30;;;;;;;7.44;70.67;94334.56;4144239;28;20139;-74
2022/11/16 01:05:38;;;;;;;175.35;100.00;;;;;;;7.39;70.70;94338.44;4141621;28;20045;-75
2022/11/16 01:07:40;;;;;;;164.00;98.30;;;;;;;7.39;70.38;94333.22;4143054;28;20052;-76
2022/11/16 01:09:42;;;;;;;165.93;99.78;;;;;;;7.41;70.28;94334.88;4126181;28;20050;-75
2022/11/16 01:14:06;;;;;;;167.93;106.53;;;;;;;7.41;70.19;94321.84;4143950;28;20381;-75
2022/11/16 01:16:11;;;;;;;171.13;112.03;;;;;;;7.35;70.78;94318.84;4143506;28;20085;-72
2022/11/16 01:18:13;;;;;;;174.23;103.40;;;;;;;7.37;70.67;94318.72;4144057;28;20424;-75
2022/11/16 01:20:18;;;;;;;161.75;99.90;;;;;;;7.34;69.95;94322.44;4143978;28;20495;-74
2022/11/16 01:22:20;;;;;;;165.10;99.65;;;;;;;7.31;70.73;94307.13;4142740;28;20173;-76
2022/11/16 01:24:23;;;;;;;160.02;97.30;;;;;;;7.31;70.50;94309.72;4143955;28;20129;-76
2022/11/16 01:26:25;;;;;;;167.35;101.65;;;;;;;7.20;70.41;94322.94;4143682;28;20058;-77
2022/11/16 01:28:28;;;;;;;156.88;97.95;;;;;;;6.92;71.23;94322.16;4126650;28;20122;-75
2022/11/16 01:30:30;;;;;;;156.18;95.35;;;;;;;6.62;72.92;94328.50;4142566;28;20053;-76
2022/11/16 01:32:32;;;;;;;161.20;98.55;;;;;;;6.52;73.42;94325.94;4143137;28;20049;-75
2022/11/16 01:34:34;;;;;;;176.52;104.97;;;;;;;6.36;72.83;94326.53;4143763;28;20524;-75
2022/11/16 01:36:36;;;;;;;183.48;102.28;;;;;;;6.21;73.62;94326.16;4143556;28;20523;-76
2022/11/16 01:38:37;;;;;;;176.43;105.88;;;;;;;6.14;73.50;94320.72;4141989;28;20108;-75
2022/11/16 01:40:39;;;;;;;181.13;108.25;;;;;;;6.10;73.87;94327.16;4144096;28;20061;-74
2022/11/16 01:42:41;;;;;;;178.95;105.65;;;;;;;6.14;73.56;94322.50;4142151;28;20120;-76
2022/11/16 01:44:43;;;;;;;182.52;109.25;;;;;;;6.23;73.95;94320.84;4142155;28;20100;-75
2022/11/16 01:46:44;;;;;;;181.88;107.78;;;;;;;6.35;73.57;94304.09;4142876;28;20073;-76
2022/11/16 01:48:48;;;;;;;182.13;104.05;;;;;;;6.50;72.96;94310.47;4143731;28;20077;-74
2022/11/16 01:50:50;;;;;;;;;;;;;;;6.60;72.57;94320.81;4143072;28;20419;-75
2022/11/16 01:52:58;;;;;;;189.20;109.30;;;;;;;6.69;72.01;94314.78;4143814;28;20434;-73
2022/11/16 01:55:00;;;;;;;175.85;105.30;;;;;;;6.48;71.73;94312.38;4142062;28;20054;-73
2022/11/16 01:57:05;;;;;;;180.95;108.15;;;;;;;6.33;72.71;94306.84;4141706;28;20069;-73
2022/11/16 01:59:07;;;;;;;186.90;105.72;;;;;;;6.34;73.27;94305.03;4138616;28;20049;-75
2022/11/16 02:01:08;;;;;;;176.23;109.03;;;;;;;6.25;72.64;94296.31;4142915;28;20076;-74
2022/11/16 02:03:10;;;;;;;185.82;107.50;;;;;;;6.22;73.09;94301.00;4141804;28;20076;-71
2022/11/16 02:05:16;;;;;;;182.73;105.50;;;;;;;6.24;73.45;94299.06;4137233;28;20054;-71
2022/11/16 02:10:37;;;;;;;182.90;109.97;;;;;;;6.19;73.14;94283.06;4138165;28;20081;-72
2022/11/16 02:12:50;;;;;;;191.35;109.63;;;;;;;6.33;73.11;94282.59;4130972;28;20432;-74
2022/11/16 02:15:07;;;;;;;186.23;109.65;;;;;;;6.42;72.61;94281.75;4143363;28;20058;-72
2022/11/16 02:17:35;;;;;;;172.15;105.10;;;;;;;6.51;72.00;94280.88;4142820;28;20112;-75
2022/11/16 02:19:44;;;;;;;183.38;104.90;;;;;;;6.58;71.61;94275.91;4138043;28;20053;-71
2022/11/16 02:22:13;;;;;;;177.85;105.28;;;;;;;6.65;71.45;94276.16;4144583;28;20080;-71
2022/11/16 02:24:24;;;;;;;171.27;102.32;;;;;;;6.66;70.90;94286.41;4145892;28;20065;-72
2022/11/16 02:26:34;;;;;;;177.77;103.40;;;;;;;6.64;71.13;94283.13;4132363;28;20165;-74
2022/11/16 02:29:13;;;;;;;178.50;101.35;;;;;;;6.69;70.82;94291.34;4140615;28;20119;-75
2022/11/16 02:32:10;;;;;;;171.07;100.78;;;;;;;6.74;70.35;94290.91;4151600;28;20050;-75
2022/11/16 02:34:14;;;;;;;169.30;100.47;;;;;;;6.70;70.17;94284.34;4077828;29;20434;-75
2022/11/16 02:36:19;;;;;;;174.65;101.95;;;;;;;6.63;70.36;94281.50;4095671;28;20485;-74
2022/11/16 02:38:27;;;;;;;166.77;101.03;;;;;;;6.62;70.22;94273.84;4143171;28;20061;-71
2022/11/16 02:40:30;;;;;;;167.75;95.78;;;;;;;6.61;69.73;94280.00;4145333;28;20128;-72
2022/11/16 02:42:38;;;;;;;154.07;93.03;;;;;;;6.45;69.85;94278.84;4145165;28;20148;-72
2022/11/16 02:44:44;;;;;;;151.80;89.32;;;;;;;6.33;70.52;94267.00;4146631;28;20468;-71
2022/11/16 02:46:47;;;;;;;147.60;85.10;;;;;;;6.22;70.22;94269.78;4127501;28;20046;-72
2022/11/16 02:48:52;;;;;;;147.95;86.95;;;;;;;6.07;70.87;94278.03;4145080;28;20108;-72
2022/11/16 02:50:54;;;;;;;143.93;85.43;;;;;;;5.84;71.25;94271.50;4143373;28;20060;-72
2022/11/16 02:52:56;;;;;;;138.30;80.32;;;;;;;5.69;71.74;94273.72;4140933;28;20061;-72
2022/11/16 02:54:58;;;;;;;127.25;75.65;;;;;;;5.68;72.07;94272.91;4145713;28;20061;-73
2022/11/16 02:57:02;;;;;;;124.35;75.35;;;;;;;5.60;71.50;94274.56;4145554;28;20126;-70
2022/11/16 02:59:07;;;;;;;122.13;73.32;;;;;;;5.64;72.29;94278.53;4137696;28;20212;-73
2022/11/16 03:01:15;;;;;;;115.18;68.03;;;;;;;5.73;71.60;94272.50;4143514;28;20068;-72
2022/11/16 03:03:27;;;;;;;114.80;67.30;;;;;;;5.78;71.17;94266.88;4128396;28;20050;-71
2022/11/16 03:05:49;;;;;;;113.13;65.80;;;;;;;5.84;71.02;94263.72;4145250;28;20415;-74
2022/11/16 03:08:00;;;;;;;119.07;69.43;;;;;;;5.85;70.86;94265.34;4142367;28;20547;-76
2022/11/16 03:10:03;;;;;;;116.70;69.47;;;;;;;5.88;70.36;94258.09;4144816;28;20046;-74
2022/11/16 03:12:07;;;;;;;116.70;68.60;;;;;;;5.95;70.62;94258.38;4128701;28;20073;-73
2022/11/16 03:14:13;;;;;;;105.53;65.10;;;;;;;6.04;70.51;94246.28;4129015;28;20133;-74
2022/11/16 03:16:22;;;;;;;110.63;64.22;;;;;;;6.06;69.49;94247.78;4130933;28;20096;-72
2022/11/16 03:18:25;;;;;;;108.38;65.38;;;;;;;6.09;70.05;94250.13;4144621;28;20042;-75
2022/11/16 03:20:28;;;;;;;113.85;68.95;;;;;;;6.07;69.52;94249.44;4123745;28;20054;-75
2022/11/16 03:22:40;;;;;;;101.55;64.18;;;;;;;6.06;69.43;94247.78;4143349;28;20057;-76
2022/11/16 03:24:42;;;;;;;113.40;64.82;;;;;;;5.99;69.26;94253.72;4144313;28;20063;-74
2022/11/16 03:26:51;;;;;;;103.53;64.20;;;;;;;5.77;70.41;94254.84;4144429;28;20088;-75
2022/11/16 03:29:09;;;;;;;111.30;66.75;;;;;;;5.40;71.29;94258.16;4128172;28;20136;-74
2022/11/16 03:31:20;;;;;;;104.07;65.28;;;;;;;5.18;72.52;94247.09;4144481;28;20377;-75
2022/11/16 03:33:27;;;;;;;109.65;63.75;;;;;;;4.93;72.88;94253.69;4145818;28;20132;-73
2022/11/16 03:35:42;;;;;;;109.95;65.30;;;;;;;4.62;73.92;94258.13;4144456;28;20050;-73
2022/11/16 03:37:45;;;;;;;111.53;65.63;;;;;;;4.66;75.10;94259.50;4146048;28;20530;-71
2022/11/16 03:39:48;;;;;;;109.40;64.60;;;;;;;4.75;74.87;94252.69;4143902;28;20204;-71
2022/11/16 03:41:50;;;;;;;101.75;62.58;;;;;;;4.85;75.17;94245.75;4144220;28;20057;-72
2022/11/16 03:43:52;;;;;;;102.30;61.17;;;;;;;4.93;74.21;94257.09;4137566;28;21855;-76
2022/11/16 03:45:53;;;;;;;107.95;64.88;;;;;;;4.80;74.13;94255.72;4143589;28;20181;-75
2022/11/16 03:47:55;;;;;;;114.13;66.63;;;;;;;4.86;74.50;94249.97;4127392;28;20081;-76
2022/11/16 03:49:57;;;;;;;102.75;64.60;;;;;;;4.88;74.45;94254.09;4143971;28;20145;-74
2022/11/16 03:51:59;;;;;;;113.18;67.53;;;;;;;4.86;74.13;94261.19;4131858;28;20484;-74
2022/11/16 03:54:01;;;;;;;104.32;62.97;;;;;;;4.87;74.04;94254.22;4142796;28;20050;-74
2022/11/16 03:56:03;;;;;;;108.90;64.97;;;;;;;4.97;74.25;94254.22;4145140;28;20500;-74
2022/11/16 03:58:05;;;;;;;113.07;64.15;;;;;;;5.00;74.17;94249.56;4143751;28;20089;-75
2022/11/16 04:00:07;;;;;;;114.18;69.47;;;;;;;5.11;74.62;94248.63;4143612;28;20133;-73
2022/11/16 04:02:09;;;;;;;111.53;66.63;;;;;;;5.23;73.65;94238.94;4144604;28;20483;-74
2022/11/16 04:24:10;;;;;;;110.75;68.10;;;;;;;5.36;73.03;94238.66;4143976;28;20057;-75
2022/11/16 04:25:24;;;;;;;112.07;68.70;;;;;;;5.61;72.31;94212.03;4134994;28;20149;-74
2022/11/16 04:29:48;;;;;;;109.03;62.30;;;;;;;5.65;71.31;94202.19;4145103;28;20129;-74
2022/11/16 04:38:51;;;;;;;105.07;63.63;;;;;;;5.40;73.21;94209.66;4144765;28;20050;-70
2022/11/16 04:40:52;;;;;;;117.50;64.22;;;;;;;5.51;72.93;94204.28;4143966;28;20084;-70
2022/11/16 04:42:56;;;;;;;106.63;65.07;;;;;;;5.62;72.80;94202.50;4141028;28;20477;-72
2022/11/16 04:47:18;;;;;;;113.28;66.55;;;;;;;5.77;71.65;94210.66;4133083;28;20049;-70
2022/11/16 04:49:20;;;;;;;102.55;60.63;;;;;;;5.73;71.72;94208.31;4143932;28;20046;-72
2022/11/16 04:51:21;;;;;;;113.55;63.97;;;;;;;5.71;71.81;94217.22;4143781;28;20488;-71
2022/11/16 04:53:25;;;;;;;114.72;64.43;;;;;;;5.71;72.30;94205.06;4145794;28;20116;-73
2022/11/16 04:55:27;;;;;;;109.95;62.60;;;;;;;5.76;72.20;94209.81;4144165;28;20050;-71
2022/11/16 04:57:29;;;;;;;118.60;63.30;;;;;;;5.78;71.74;94204.47;4133172;28;20128;-69
2022/11/16 04:59:30;;;;;;;109.65;62.47;;;;;;;5.75;71.60;94203.81;4146704;28;20045;-72
2022/11/16 05:03:53;;;;;;;111.05;64.22;;;;;;;5.68;72.13;94207.94;4141416;28;20660;-70
2022/11/16 05:05:54;;;;;;;114.07;64.78;;;;;;;5.68;72.68;94204.53;4144408;28;20140;-72
2022/11/16 05:07:56;;;;;;;114.70;65.03;;;;;;;5.68;72.30;94199.34;4144354;28;20152;-73
2022/11/16 05:09:58;;;;;;;111.20;66.30;;;;;;;5.60;72.47;94201.81;4141124;28;20038;-72
2022/11/16 05:11:59;;;;;;;110.22;66.32;;;;;;;5.59;72.61;94195.78;4144427;28;20052;-73
2022/11/16 05:14:01;;;;;;;115.22;63.95;;;;;;;5.64;72.34;94203.19;4143029;28;20414;-70
2022/11/16 05:16:04;;;;;;;116.00;64.47;;;;;;;5.68;72.67;94197.53;4143992;28;20046;-76
2022/11/16 05:18:06;;;;;;;113.55;66.78;;;;;;;5.72;72.10;94190.25;4144186;28;20077;-73
2022/11/16 05:22:29;;;;;;;112.55;64.32;;;;;;;5.83;71.98;94191.88;4144617;28;20057;-73
2022/11/16 05:24:33;;;;;;;113.30;67.07;;;;;;;5.91;71.79;94189.38;4144328;28;20119;-75
2022/11/16 05:26:35;;;;;;;114.18;64.55;;;;;;;5.96;71.76;94192.41;4144264;28;20061;-76
2022/11/16 05:28:37;;;;;;;111.28;62.28;;;;;;;6.04;71.53;94195.09;4144784;28;20053;-77
2022/11/16 05:30:38;;;;;;;107.90;62.70;;;;;;;6.11;71.86;94196.19;4144479;28;20088;-76
2022/11/16 05:32:40;;;;;;;111.43;63.97;;;;;;;6.17;71.12;94189.56;4143770;28;20053;-76
2022/11/16 05:34:42;;;;;;;107.15;61.22;;;;;;;6.22;71.06;94191.75;4144615;28;20054;-75
2022/11/16 05:36:43;;;;;;;98.68;59.63;;;;;;;6.26;71.42;94193.06;4144685;28;20379;-76
2022/11/16 05:38:45;;;;;;;100.70;59.67;;;;;;;6.30;70.63;94190.06;4143952;28;20140;-76
2022/11/16 05:40:47;;;;;;;95.60;58.38;;;;;;;5.96;71.61;94189.81;4144144;28;20104;-74
2022/11/16 05:42:48;;;;;;;103.50;61.25;;;;;;;5.72;72.19;94188.50;4141365;28;20049;-70
2022/11/16 05:44:50;;;;;;;99.97;57.67;;;;;;;5.75;73.08;94193.41;4138432;28;20054;-75
2022/11/16 05:46:52;;;;;;;101.38;59.58;;;;;;;5.90;73.28;94198.16;4143333;28;20165;-73
2022/11/16 05:48:54;;;;;;;100.28;58.22;;;;;;;6.02;72.50;94196.22;4144435;28;20057;-75
2022/11/16 05:50:59;;;;;;;102.38;59.10;;;;;;;6.17;72.21;94188.75;4144592;28;20209;-74
2022/11/16 05:53:01;;;;;;;100.82;59.50;;;;;;;6.24;71.96;94189.81;4147699;28;20463;-76
2022/11/16 05:55:03;;;;;;;102.68;60.35;;;;;;;6.35;71.56;94187.03;4144910;28;20237;-75
2022/11/16 05:57:04;;;;;;;104.15;60.42;;;;;;;6.47;71.31;94188.44;4144267;28;20069;-74
2022/11/16 05:59:06;;;;;;;105.60;59.17;;;;;;;6.55;70.67;94187.72;4148307;28;20064;-77
2022/11/16 06:01:14;;;;;;;108.43;62.90;;;;;;;6.62;70.05;94196.56;4129799;28;20117;-74
2022/11/16 06:03:15;;;;;;;107.32;59.40;;;;;;;6.62;70.45;94200.97;4147742;28;20053;-75
2022/11/16 06:05:17;;;;;;;106.25;62.25;;;;;;;6.58;70.38;94203.03;4147492;28;20726;-76
2022/11/16 06:07:19;;;;;;;130.57;70.45;;;;;;;6.52;70.51;94193.22;4148089;28;20093;-75
2022/11/16 06:09:21;;;;;;;120.18;65.00;;;;;;;6.47;70.52;94200.63;4145865;28;20065;-75
2022/11/16 06:11:23;;;;;;;116.85;63.50;;;;;;;6.51;70.60;94197.59;4146945;28;20057;-76
2022/11/16 06:13:24;;;;;;;117.63;65.30;;;;;;;6.44;70.70;94206.16;4130005;28;20058;-74
2022/11/16 06:15:26;;;;;;;119.47;65.32;;;;;;;6.33;71.35;94201.97;4146876;28;20123;-75
2022/11/16 06:17:28;;;;;;;113.57;63.45;;;;;;;6.32;71.57;94202.91;4145239;28;20050;-74
2022/11/16 06:19:29;;;;;;;113.35;62.80;;;;;;;6.25;71.76;94196.66;4147503;28;20107;-74
2022/11/16 06:21:33;;;;;;;114.82;60.47;;;;;;;6.20;72.23;94194.50;4147275;28;20420;-77
2022/11/16 06:23:34;;;;;;;114.03;63.35;;;;;;;6.19;72.35;94199.84;4145496;28;20510;-79
2022/11/16 06:25:38;;;;;;;112.00;61.90;;;;;;;6.26;72.34;94195.69;4129769;28;20137;-75
2022/11/16 06:27:40;;;;;;;113.63;62.08;;;;;;;6.34;72.22;94190.56;4147477;28;20132;-75
2022/11/16 06:29:41;;;;;;;122.68;64.28;;;;;;;6.41;72.38;94193.41;4147146;28;20562;-76
2022/11/16 06:31:43;;;;;;;113.00;60.15;;;;;;;6.46;72.37;94193.81;4146302;28;20050;-73
2022/11/16 06:33:45;;;;;;;117.70;58.30;;;;;;;6.51;72.12;94197.59;4146141;28;20535;-77
2022/11/16 06:35:47;;;;;;;105.68;58.67;;;;;;;6.58;72.02;94197.81;4147363;28;20049;-76
2022/11/16 06:37:48;;;;;;;102.65;58.40;;;;;;;6.66;71.49;94197.09;4146064;28;20145;-75
2022/11/16 06:39:50;;;;;;;97.20;55.10;;;;;;;6.69;71.46;94199.41;4146791;28;20042;-73
2022/11/16 06:41:51;;;;;;;95.50;55.75;;;;;;;6.75;70.98;94189.22;4145525;28;20599;-79
2022/11/16 06:43:53;;;;;;;100.80;57.50;;;;;;;6.79;70.95;94191.53;4146070;28;20050;-77
2022/11/16 06:45:57;;;;;;;99.63;57.17;;;;;;;6.80;70.91;94196.59;4147102;28;20050;-76
2022/11/16 06:47:58;;;;;;;99.47;55.10;;;;;;;6.86;71.19;94196.00;4145057;28;20496;-76
2022/11/16 06:50:01;;;;;;;95.68;57.17;;;;;;;6.94;71.25;94198.66;4129501;28;20070;-74
2022/11/16 06:52:03;;;;;;;90.70;53.00;;;;;;;6.97;70.41;94190.56;4145573;28;20050;-75
2022/11/16 06:54:05;;;;;;;95.72;56.42;;;;;;;6.93;70.71;94193.63;4146751;28;20073;-75
2022/11/16 06:56:24;;;;;;;97.90;54.08;;;;;;;6.93;71.01;94198.84;4146550;28;20538;-76
2022/11/16 06:58:28;;;;;;;98.38;53.55;;;;;;;6.94;71.16;94196.06;4146809;28;20159;-73
2022/11/16 07:00:29;;;;;;;95.00;52.88;;;;;;;6.99;71.42;94195.63;4146353;28;20053;-74
2022/11/16 07:02:31;;;;;;;87.85;51.20;;;;;;;7.08;71.22;94191.31;4145922;28;20129;-74
2022/11/16 07:04:33;;;;;;;91.65;51.40;;;;;;;7.09;71.10;94193.75;4146459;28;20623;-75
2022/11/16 07:06:34;;;;;;;87.63;51.63;;;;;;;7.12;71.08;94190.84;4146961;28;20046;-76
2022/11/16 07:08:36;;;;;;;93.25;52.40;;;;;;;7.15;71.21;94192.34;4130728;28;20069;-74
2022/11/16 07:10:38;;;;;;;104.65;53.72;;;;;;;7.18;71.55;94187.66;4144303;28;20491;-75
2022/11/16 07:12:40;;;;;;;93.75;53.13;;;;;;;7.24;71.25;94191.44;4146791;28;20133;-75
2022/11/16 07:14:44;;;;;;;98.68;54.97;;;;;;;7.31;71.36;94192.47;4148962;28;20149;-76
2022/11/16 07:16:45;;;;;;;107.00;53.75;;;;;;;7.37;71.36;94189.25;4138463;28;20072;-74
2022/11/16 07:18:47;;;;;;;100.72;51.85;;;;;;;7.44;71.18;94186.03;4147236;28;20046;-74
2022/11/16 07:20:49;;;;;;;92.13;50.90;;;;;;;7.41;70.86;94189.75;4147746;28;20049;-75
2022/11/16 07:22:54;;;;;;;100.47;48.55;;;;;;;7.49;70.71;94186.41;4148019;28;20594;-78
2022/11/16 07:24:56;;;;;;;92.93;50.80;;;;;;;7.20;70.38;94181.47;4149942;28;20069;-76
2022/11/16 07:26:58;;;;;;;88.82;47.28;;;;;;;6.97;71.94;94180.16;4157220;28;20419;-74
2022/11/16 07:29:01;;;;;;;96.82;50.15;;;;;;;7.01;72.66;94185.84;4160087;28;20061;-74
2022/11/16 07:31:04;;;;;;;100.13;51.83;;;;;;;7.10;72.39;94178.97;4146051;28;20046;-76
2022/11/16 07:33:06;;;;;;;88.40;50.08;;;;;;;7.22;72.33;94180.34;4133126;28;20219;-74
2022/11/16 07:35:08;;;;;;;94.07;50.58;;;;;;;7.32;71.50;94181.06;4147047;28;20056;-75
2022/11/16 07:37:09;;;;;;;91.85;49.40;;;;;;;7.41;71.45;94175.91;4145440;28;20085;-77
2022/11/16 07:39:11;;;;;;;88.22;49.67;;;;;;;7.48;71.15;94169.94;4144234;28;20081;-75
2022/11/16 07:41:15;;;;;;;91.55;49.22;;;;;;;7.53;71.31;94178.13;4137508;28;20050;-77
2022/11/16 07:43:17;;;;;;;88.35;47.63;;;;;;;7.54;71.53;94168.50;4123963;28;20093;-76
2022/11/16 07:45:19;;;;;;;90.72;49.55;;;;;;;7.63;71.10;94171.97;4144231;28;20116;-78
2022/11/16 07:47:20;;;;;;;87.10;49.47;;;;;;;7.67;71.72;94174.13;4144802;28;20096;-75
2022/11/16 07:49:22;;;;;;;88.65;49.80;;;;;;;7.77;71.68;94172.22;4144988;28;20053;-76
2022/11/16 07:51:24;;;;;;;98.25;47.97;;;;;;;7.72;70.83;94168.44;4145189;28;20060;-76
2022/11/16 07:53:26;;;;;;;95.90;49.50;;;;;;;7.68;71.25;94167.13;4128415;28;20148;-79
2022/11/16 07:55:30;;;;;;;99.43;47.45;;;;;;;7.70;71.61;94162.56;4143351;28;20145;-77
2022/11/16 07:57:32;;;;;;;100.28;47.92;;;;;;;7.72;71.28;94160.63;4146140;28;20263;-75
2022/11/16 07:59:34;;;;;;;89.30;49.00;;;;;;;7.76;71.15;94165.38;4146024;28;20081;-75
2022/11/16 08:01:35;;;;;;;93.70;49.30;;;;;;;7.78;71.04;94167.81;4142927;28;20073;-74
2022/11/16 08:03:38;;;;;;;100.03;48.78;;;;;;;7.80;71.34;94158.06;4145449;28;20392;-73
2022/11/16 08:05:40;;;;;;;98.18;47.15;;;;;;;7.83;70.77;94169.97;4144023;28;20085;-74
2022/11/16 08:07:42;;;;;;;93.35;47.58;;;;;;;7.87;71.01;94158.25;4145218;28;20046;-73
2022/11/16 08:09:43;;;;;;;90.40;47.25;;;;;;;7.90;70.81;94155.34;4142764;28;20082;-73
2022/11/16 08:11:46;;;;;;;95.43;46.15;;;;;;;8.00;70.66;94149.03;4143826;28;20084;-73
2022/11/16 08:13:48;;;;;;;96.32;48.67;;;;;;;8.10;70.52;94150.69;4145547;28;20411;-73
2022/11/16 08:15:49;;;;;;;95.45;46.08;;;;;;;8.15;70.32;94146.66;4143534;28;20056;-74
2022/11/16 08:17:51;;;;;;;99.10;48.50;;;;;;;8.17;69.63;94139.50;4144437;28;20069;-73
2022/11/16 08:19:53;;;;;;;109.07;49.90;;;;;;;8.24;70.51;94138.84;4144932;28;20073;-73
2022/11/16 08:21:55;;;;;;;91.95;47.22;;;;;;;8.21;70.38;94138.16;4143371;28;20141;-72
2022/11/16 08:23:56;;;;;;;97.45;47.58;;;;;;;8.29;70.71;94131.38;4144853;28;20141;-73
2022/11/16 08:26:01;;;;;;;106.32;50.97;;;;;;;8.33;69.91;94135.28;4145040;28;20050;-72
2022/11/16 08:28:03;;;;;;;101.32;48.05;;;;;;;8.35;70.05;94128.94;4143111;28;20085;-73
2022/11/16 08:30:08;;;;;;;97.88;48.40;;;;;;;8.39;70.16;94129.44;4144455;28;20085;-73
2022/11/16 08:32:10;;;;;;;103.15;48.83;;;;;;;8.42;70.48;94130.94;4144338;28;20057;-72
2022/11/16 08:34:12;;;;;;;95.95;46.15;;;;;;;8.43;70.19;94127.34;4143217;28;20812;-73
2022/11/16 08:36:16;;;;;;;96.55;48.10;;;;;;;8.49;70.37;94130.13;4144165;28;20043;-73
2022/11/16 08:38:17;;;;;;;103.57;48.67;;;;;;;8.29;70.62;94120.94;4144558;28;20488;-72
2022/11/16 08:40:19;;;;;;;101.32;48.03;;;;;;;8.29;71.11;94129.56;4144290;28;20466;-74
2022/11/16 08:42:21;;;;;;;94.65;47.17;;;;;;;8.33;70.93;94125.66;4144559;28;20046;-75
2022/11/16 08:44:23;;;;;;;95.07;47.90;;;;;;;8.37;70.39;94124.38;4144543;28;20466;-74
2022/11/16 08:46:25;;;;;;;104.45;48.20;;;;;;;8.25;71.07;94125.63;4143356;28;20065;-73
2022/11/16 08:48:26;;;;;;;115.07;50.88;;;;;;;8.19;71.77;94119.28;4143289;28;20128;-75
2022/11/16 08:50:28;;;;;;;107.47;49.42;;;;;;;8.03;71.69;94121.00;4144624;28;20125;-73
2022/11/16 08:52:33;;;;;;;106.68;50.25;;;;;;;7.86;72.38;94130.56;4140817;28;20046;-73
2022/11/16 08:54:35;;;;;;;101.85;49.65;;;;;;;7.71;73.51;94128.53;4139819;28;20098;-73
2022/11/16 08:56:37;;;;;;;111.72;51.50;;;;;;;7.48;74.04;94128.22;4142702;28;20182;-71
2022/11/16 08:58:42;;;;;;;110.03;50.15;;;;;;;7.59;74.61;94124.53;4144406;28;20749;-73
2022/11/16 09:00:44;;;;;;;115.65;52.90;;;;;;;7.80;74.63;94126.78;4144404;28;20046;-72
2022/11/16 09:02:45;;;;;;;107.82;50.42;;;;;;;8.06;74.35;94116.28;4143814;28;20131;-72
2022/11/16 09:04:47;;;;;;;108.90;49.47;;;;;;;8.34;73.34;94124.66;4142151;28;20057;-72
2022/11/16 09:06:51;;;;;;;110.00;47.97;;;;;;;8.55;72.94;94116.44;4143786;28;20046;-73
2022/11/16 09:08:53;;;;;;;102.60;48.08;;;;;;;8.63;72.05;94105.19;4143041;28;20453;-74
2022/11/16 09:10:55;;;;;;;101.22;47.40;;;;;;;8.78;71.73;94108.00;4126669;28;20824;-77
2022/11/16 09:12:57;;;;;;;102.57;46.90;;;;;;;8.93;71.59;94106.34;4143615;28;20096;-75
2022/11/16 09:15:18;;;;;;;86.53;40.28;;;;;;;9.07;70.42;94107.47;4144443;28;20100;-77
2022/11/16 09:17:19;;;;;;;91.82;42.10;;;;;;;9.15;70.85;94099.66;4142536;28;20150;-75
2022/11/16 09:19:23;;;;;;;94.28;43.10;;;;;;;9.14;69.57;94089.34;4138982;28;20049;-74
2022/11/16 09:21:27;;;;;;;93.45;42.80;;;;;;;9.18;70.32;94088.88;4144101;28;20085;-74
2022/11/16 09:23:29;;;;;;;85.60;42.40;;;;;;;9.34;70.11;94085.41;4127023;28;20520;-79
2022/11/16 09:25:31;;;;;;;82.57;40.00;;;;;;;9.51;69.97;94077.53;4145892;28;20086;-76
2022/11/16 09:27:32;;;;;;;82.72;39.03;;;;;;;9.67;69.29;94069.63;4145124;28;20066;-78
2022/11/16 09:29:34;;;;;;;77.43;37.50;;;;;;;9.77;68.46;94062.41;4143011;28;20065;-77
2022/11/16 09:31:37;;;;;;;80.07;39.13;;;;;;;9.86;68.48;94067.59;4134216;28;20350;-76
2022/11/16 09:33:39;;;;;;;76.53;37.92;;;;;;;9.92;68.66;94065.13;4144567;28;20148;-75
2022/11/16 09:35:47;;;;;;;75.05;34.70;;;;;;;10.03;68.14;94053.47;4144370;28;20050;-73
2022/11/16 09:37:50;;;;;;;75.03;35.53;;;;;;;10.30;69.04;94043.50;4143019;28;20069;-74
2022/11/16 09:39:52;;;;;;;71.30;34.58;;;;;;;10.37;67.82;94042.66;4144237;28;20637;-74
2022/11/16 09:42:39;;;;;;;67.40;34.20;;;;;;;10.32;67.36;94044.16;4144000;28;20129;-72
2022/11/16 09:44:47;;;;;;;70.78;37.05;;;;;;;10.29;67.13;94039.25;4136149;28;20065;-72
2022/11/16 11:27:27;;;;;;;52.67;32.67;;;;;;;13.08;60.20;93873.88;4232483;27;20140;-54
2022/11/16 11:29:36;;;;;;;54.97;29.80;;;;;;;12.85;59.92;93871.53;4222806;28;20044;-57
2022/11/16 11:31:42;;;;;;;51.92;27.95;;;;;;;12.40;61.51;93873.63;3520824;28;10000688;-59
2022/11/16 11:33:50;;;;;;;48.00;28.95;;;;;;;12.23;61.97;93868.66;4232108;28;20082;-53
2022/11/16 11:36:04;;;;;;;46.35;28.50;;;;;;;12.28;62.13;93865.44;4237035;28;20495;-50
2022/11/16 11:38:06;;;;;;;48.80;28.88;;;;;;;12.41;61.90;93867.38;4231625;28;20138;-50
2022/11/16 11:40:09;;;;;;;47.42;27.25;;;;;;;12.45;61.87;93858.09;3828030;28;10000052;-55
2022/11/16 11:42:28;;;;;;;50.70;28.63;;;;;;;12.49;61.27;93859.34;4227341;28;20479;-55
2022/11/16 11:44:41;;;;;;;50.80;28.70;;;;;;;12.38;61.36;93855.44;4232646;28;20628;-53
2022/11/16 11:46:58;;;;;;;45.95;27.80;;;;;;;12.32;61.82;93850.13;4225008;28;20048;-52
2022/11/16 11:49:20;;;;;;;40.00;24.73;;;;;;;12.26;62.18;93851.69;3870776;28;10000422;-52
2022/11/16 11:51:40;;;;;;;44.90;28.60;;;;;;;12.27;62.00;93842.84;4226634;28;20513;-52